Погода Кавадарцина 2 недели

Скопье, Македония

12 - 25 июля
  • 12июля
    Сегодня
    +24°
    +40°
    Ясно и безоблачно
    ВремяПогодаТемператураВлажностьДавлениеВетер, м/сВероятность осадков
    02:00Ясно и безоблачно+27°C51 %736 мм0.2 м/с2 %
    05:00Ясно и безоблачно+26°C56 %736 мм0.4 м/с2 %
    08:00Ясно и безоблачно+28°C43 %736 мм1.1 м/с2 %
    11:00Ясно и безоблачно+35°C34 %736 мм1.2 м/с2 %
    14:00Ясно и безоблачно+40°C25 %735 мм1.7 м/с2 %
    17:00Ясно и безоблачно+39°C24 %734 мм0.9 м/с2 %
    20:00Ясно и безоблачно+33°C41 %733 мм1.6 м/с2 %
    23:00Ясно и безоблачно+29°C51 %733 мм1.7 м/с2 %
  • 13июля
    Суббота
    +23°
    +41°
    Практически безоблачно
    ВремяПогодаТемператураВлажностьДавлениеВетер, м/сВероятность осадков
    02:00Ясно и безоблачно+26°C59 %733 мм0.8 м/с2 %
    05:00Ясно и безоблачно+24°C66 %734 мм0.7 м/с2 %
    08:00Ясно и безоблачно+28°C50 %735 мм1.0 м/с2 %
    11:00Ясно и безоблачно+36°C35 %735 мм1.0 м/с2 %
    14:00Практически безоблачно+41°C25 %734 мм1.9 м/с2 %
    17:00Ясно и безоблачно+40°C24 %733 мм1.3 м/с2 %
    20:00Ясно и безоблачно+33°C37 %732 мм1.6 м/с2 %
    23:00Ясно и безоблачно+29°C48 %733 мм0.7 м/с2 %
  • 14июля
    Воскресенье
    +25°
    +42°
    Ясно и безоблачно
    ВремяПогодаТемператураВлажностьДавлениеВетер, м/сВероятность осадков
    02:00Ясно и безоблачно+26°C58 %734 мм0.7 м/с2 %
    05:00Ясно и безоблачно+24°C64 %734 мм1.0 м/с2 %
    08:00Ясно и безоблачно+28°C48 %735 мм0.9 м/с2 %
    11:00Ясно и безоблачно+36°C34 %736 мм1.3 м/с2 %
    14:00Ясно и безоблачно+42°C25 %735 мм2.0 м/с2 %
    17:00Практически безоблачно+41°C23 %733 мм1.4 м/с2 %
    20:00Практически безоблачно+34°C36 %733 мм1.7 м/с2 %
    23:00Ясно и безоблачно+30°C44 %734 мм0.7 м/с2 %
  • 15июля
    Понедельник
    +23°
    +43°
    Ясно и безоблачно
    ВремяПогодаТемператураВлажностьДавлениеВетер, м/сВероятность осадков
    02:00Ясно и безоблачно+27°C52 %734 мм0.5 м/с2 %
    05:00Ясно и безоблачно+26°C55 %734 мм0.5 м/с2 %
    08:00Ясно и безоблачно+29°C40 %736 мм1.6 м/с2 %
    11:00Ясно и безоблачно+37°C29 %736 мм2.0 м/с2 %
    14:00Ясно и безоблачно+42°C22 %735 мм2.5 м/с2 %
    17:00Ясно и безоблачно+42°C19 %734 мм1.7 м/с2 %
    20:00Практически безоблачно+33°C27 %733 мм1.6 м/с2 %
    23:00Ясно и безоблачно+29°C41 %734 мм0.5 м/с2 %
  • 16июля
    Вторник
    +24°
    +43°
    Ясно и безоблачно
    ВремяПогодаТемператураВлажностьДавлениеВетер, м/сВероятность осадков
    02:00Ясно и безоблачно+26°C50 %735 мм0.3 м/с2 %
    05:00Ясно и безоблачно+24°C60 %735 мм0.8 м/с2 %
    08:00Ясно и безоблачно+29°C43 %736 мм1.1 м/с2 %
    11:00Ясно и безоблачно+38°C30 %736 мм1.0 м/с2 %
    14:00Ясно и безоблачно+42°C18 %735 мм1.0 м/с2 %
    17:00Ясно и безоблачно+42°C18 %734 мм0.3 м/с2 %
    20:00Ясно и безоблачно+34°C25 %733 мм1.6 м/с2 %
    23:00Ясно и безоблачно+29°C41 %734 мм1.0 м/с2 %
Мы используем cookies
Соглашаюсь